sensor_id;sensor_type;location;lat;lon;timestamp;P1;durP1;ratioP1;P2;durP2;ratioP2
24559;SDS011;12727;49.934;8.656;2022-07-12T00:01:05;3.25;;;1.23;;
24559;SDS011;12727;49.934;8.656;2022-07-12T00:03:31;1.10;;;1.00;;
24559;SDS011;12727;49.934;8.656;2022-07-12T00:06:00;1.55;;;1.17;;
24559;SDS011;12727;49.934;8.656;2022-07-12T00:08:26;2.45;;;1.05;;
24559;SDS011;12727;49.934;8.656;2022-07-12T00:10:52;3.08;;;1.50;;
24559;SDS011;12727;49.934;8.656;2022-07-12T00:13:18;1.50;;;1.40;;
24559;SDS011;12727;49.934;8.656;2022-07-12T00:15:44;1.08;;;0.98;;
24559;SDS011;12727;49.934;8.656;2022-07-12T00:18:09;2.03;;;1.30;;
24559;SDS011;12727;49.934;8.656;2022-07-12T00:20:36;2.17;;;1.20;;
24559;SDS011;12727;49.934;8.656;2022-07-12T00:23:02;1.10;;;0.98;;
24559;SDS011;12727;49.934;8.656;2022-07-12T00:25:28;2.95;;;1.15;;
24559;SDS011;12727;49.934;8.656;2022-07-12T00:27:54;1.30;;;1.20;;
24559;SDS011;12727;49.934;8.656;2022-07-12T00:30:20;1.20;;;1.10;;
24559;SDS011;12727;49.934;8.656;2022-07-12T00:32:47;1.48;;;1.30;;
24559;SDS011;12727;49.934;8.656;2022-07-12T00:35:13;1.35;;;1.25;;
24559;SDS011;12727;49.934;8.656;2022-07-12T00:37:39;1.60;;;1.40;;
24559;SDS011;12727;49.934;8.656;2022-07-12T00:40:06;1.45;;;1.35;;
24559;SDS011;12727;49.934;8.656;2022-07-12T00:42:33;2.72;;;1.27;;
24559;SDS011;12727;49.934;8.656;2022-07-12T00:45:06;1.50;;;1.25;;
24559;SDS011;12727;49.934;8.656;2022-07-12T00:47:42;1.65;;;1.08;;
24559;SDS011;12727;49.934;8.656;2022-07-12T00:50:11;2.47;;;1.30;;
24559;SDS011;12727;49.934;8.656;2022-07-12T00:52:39;2.90;;;1.13;;
24559;SDS011;12727;49.934;8.656;2022-07-12T00:55:06;1.40;;;1.30;;
24559;SDS011;12727;49.934;8.656;2022-07-12T00:57:33;1.70;;;1.17;;
24559;SDS011;12727;49.934;8.656;2022-07-12T01:00:00;1.55;;;1.33;;
24559;SDS011;12727;49.934;8.656;2022-07-12T01:02:28;1.45;;;1.20;;
24559;SDS011;12727;49.934;8.656;2022-07-12T01:04:54;1.88;;;1.13;;
24559;SDS011;12727;49.934;8.656;2022-07-12T01:07:20;1.48;;;1.08;;
24559;SDS011;12727;49.934;8.656;2022-07-12T01:09:48;2.70;;;1.20;;
24559;SDS011;12727;49.934;8.656;2022-07-12T01:12:14;1.20;;;1.10;;
24559;SDS011;12727;49.934;8.656;2022-07-12T01:14:40;1.50;;;0.90;;
24559;SDS011;12727;49.934;8.656;2022-07-12T01:17:06;1.10;;;1.00;;
24559;SDS011;12727;49.934;8.656;2022-07-12T01:19:32;1.95;;;1.35;;
24559;SDS011;12727;49.934;8.656;2022-07-12T01:21:59;1.88;;;1.60;;
24559;SDS011;12727;49.934;8.656;2022-07-12T01:24:26;1.30;;;1.15;;
24559;SDS011;12727;49.934;8.656;2022-07-12T01:26:52;2.35;;;1.27;;
24559;SDS011;12727;49.934;8.656;2022-07-12T01:29:18;1.77;;;1.30;;
24559;SDS011;12727;49.934;8.656;2022-07-12T01:31:44;1.75;;;1.30;;
24559;SDS011;12727;49.934;8.656;2022-07-12T01:34:10;2.50;;;1.75;;
24559;SDS011;12727;49.934;8.656;2022-07-12T01:36:36;2.22;;;1.45;;
24559;SDS011;12727;49.934;8.656;2022-07-12T01:39:03;2.22;;;1.90;;
24559;SDS011;12727;49.934;8.656;2022-07-12T01:41:30;4.15;;;1.85;;
24559;SDS011;12727;49.934;8.656;2022-07-12T01:43:56;5.50;;;1.92;;
24559;SDS011;12727;49.934;8.656;2022-07-12T01:46:22;2.28;;;1.55;;
24559;SDS011;12727;49.934;8.656;2022-07-12T01:48:48;1.50;;;1.40;;
24559;SDS011;12727;49.934;8.656;2022-07-12T01:51:14;1.45;;;1.20;;
24559;SDS011;12727;49.934;8.656;2022-07-12T01:53:39;1.60;;;1.40;;
24559;SDS011;12727;49.934;8.656;2022-07-12T01:56:05;2.20;;;1.90;;
24559;SDS011;12727;49.934;8.656;2022-07-12T01:58:31;2.42;;;1.90;;
24559;SDS011;12727;49.934;8.656;2022-07-12T02:00:57;2.00;;;1.58;;
24559;SDS011;12727;49.934;8.656;2022-07-12T02:03:23;2.00;;;1.58;;
24559;SDS011;12727;49.934;8.656;2022-07-12T02:05:48;3.22;;;1.27;;
24559;SDS011;12727;49.934;8.656;2022-07-12T02:08:14;1.60;;;1.25;;
24559;SDS011;12727;49.934;8.656;2022-07-12T02:10:40;4.28;;;1.65;;
24559;SDS011;12727;49.934;8.656;2022-07-12T02:13:07;2.17;;;1.50;;
24559;SDS011;12727;49.934;8.656;2022-07-12T02:15:32;1.85;;;1.40;;
24559;SDS011;12727;49.934;8.656;2022-07-12T02:17:58;1.92;;;1.40;;
24559;SDS011;12727;49.934;8.656;2022-07-12T02:20:24;1.90;;;1.20;;
24559;SDS011;12727;49.934;8.656;2022-07-12T02:22:49;2.30;;;1.45;;
24559;SDS011;12727;49.934;8.656;2022-07-12T02:25:15;3.15;;;1.60;;
24559;SDS011;12727;49.934;8.656;2022-07-12T02:27:41;3.92;;;1.73;;
24559;SDS011;12727;49.934;8.656;2022-07-12T02:30:07;2.10;;;1.63;;
24559;SDS011;12727;49.934;8.656;2022-07-12T02:32:34;1.90;;;1.67;;
24559;SDS011;12727;49.934;8.656;2022-07-12T02:35:00;1.50;;;1.40;;
24559;SDS011;12727;49.934;8.656;2022-07-12T02:37:26;1.45;;;1.23;;
24559;SDS011;12727;49.934;8.656;2022-07-12T02:39:51;2.63;;;1.30;;
24559;SDS011;12727;49.934;8.656;2022-07-12T02:42:37;2.60;;;1.17;;
24559;SDS011;12727;49.934;8.656;2022-07-12T02:45:02;2.65;;;1.50;;
24559;SDS011;12727;49.934;8.656;2022-07-12T02:47:28;1.20;;;1.10;;
24559;SDS011;12727;49.934;8.656;2022-07-12T02:49:54;1.88;;;1.17;;
24559;SDS011;12727;49.934;8.656;2022-07-12T02:52:19;1.90;;;1.25;;
24559;SDS011;12727;49.934;8.656;2022-07-12T02:54:45;1.33;;;1.08;;
24559;SDS011;12727;49.934;8.656;2022-07-12T02:57:10;1.27;;;1.17;;
24559;SDS011;12727;49.934;8.656;2022-07-12T02:59:36;1.30;;;1.20;;
24559;SDS011;12727;49.934;8.656;2022-07-12T03:02:01;1.50;;;1.30;;
24559;SDS011;12727;49.934;8.656;2022-07-12T03:04:27;2.03;;;1.40;;
24559;SDS011;12727;49.934;8.656;2022-07-12T03:06:53;1.20;;;1.10;;
24559;SDS011;12727;49.934;8.656;2022-07-12T03:09:18;2.28;;;1.45;;
24559;SDS011;12727;49.934;8.656;2022-07-12T03:11:44;1.65;;;1.55;;
24559;SDS011;12727;49.934;8.656;2022-07-12T03:14:09;1.00;;;0.90;;
24559;SDS011;12727;49.934;8.656;2022-07-12T03:16:35;1.58;;;1.20;;
24559;SDS011;12727;49.934;8.656;2022-07-12T03:19:00;1.48;;;1.15;;
24559;SDS011;12727;49.934;8.656;2022-07-12T03:21:26;1.60;;;1.40;;
24559;SDS011;12727;49.934;8.656;2022-07-12T03:23:51;1.27;;;1.17;;
24559;SDS011;12727;49.934;8.656;2022-07-12T03:26:17;1.95;;;1.40;;
24559;SDS011;12727;49.934;8.656;2022-07-12T03:28:43;2.17;;;1.33;;
24559;SDS011;12727;49.934;8.656;2022-07-12T03:31:09;1.42;;;1.30;;
24559;SDS011;12727;49.934;8.656;2022-07-12T03:33:35;1.63;;;1.25;;
24559;SDS011;12727;49.934;8.656;2022-07-12T03:36:01;4.70;;;1.40;;
24559;SDS011;12727;49.934;8.656;2022-07-12T03:38:26;1.70;;;1.20;;
24559;SDS011;12727;49.934;8.656;2022-07-12T03:40:52;4.82;;;1.27;;
24559;SDS011;12727;49.934;8.656;2022-07-12T03:43:18;1.38;;;1.20;;
24559;SDS011;12727;49.934;8.656;2022-07-12T03:45:43;2.75;;;1.30;;
24559;SDS011;12727;49.934;8.656;2022-07-12T03:48:10;1.63;;;1.40;;
24559;SDS011;12727;49.934;8.656;2022-07-12T03:50:36;1.67;;;1.40;;
24559;SDS011;12727;49.934;8.656;2022-07-12T03:53:02;2.78;;;1.40;;
24559;SDS011;12727;49.934;8.656;2022-07-12T03:55:27;1.90;;;1.70;;
24559;SDS011;12727;49.934;8.656;2022-07-12T03:57:53;2.83;;;1.45;;
24559;SDS011;12727;49.934;8.656;2022-07-12T04:00:18;2.88;;;1.58;;
24559;SDS011;12727;49.934;8.656;2022-07-12T04:02:44;2.08;;;1.70;;
24559;SDS011;12727;49.934;8.656;2022-07-12T04:05:10;2.22;;;1.65;;
24559;SDS011;12727;49.934;8.656;2022-07-12T04:07:36;2.65;;;2.08;;
24559;SDS011;12727;49.934;8.656;2022-07-12T04:10:04;3.15;;;2.00;;
24559;SDS011;12727;49.934;8.656;2022-07-12T04:12:30;1.92;;;1.73;;
24559;SDS011;12727;49.934;8.656;2022-07-12T04:14:56;2.20;;;2.00;;
24559;SDS011;12727;49.934;8.656;2022-07-12T04:17:21;4.80;;;2.42;;
24559;SDS011;12727;49.934;8.656;2022-07-12T04:19:47;2.00;;;1.80;;
24559;SDS011;12727;49.934;8.656;2022-07-12T04:22:13;2.30;;;2.10;;
24559;SDS011;12727;49.934;8.656;2022-07-12T04:24:38;1.70;;;1.60;;
24559;SDS011;12727;49.934;8.656;2022-07-12T04:27:04;1.95;;;1.40;;
24559;SDS011;12727;49.934;8.656;2022-07-12T04:29:29;1.55;;;1.40;;
24559;SDS011;12727;49.934;8.656;2022-07-12T04:31:55;1.75;;;1.52;;
24559;SDS011;12727;49.934;8.656;2022-07-12T04:34:20;3.13;;;1.92;;
24559;SDS011;12727;49.934;8.656;2022-07-12T04:36:46;5.05;;;1.80;;
24559;SDS011;12727;49.934;8.656;2022-07-12T04:39:13;2.63;;;1.58;;
24559;SDS011;12727;49.934;8.656;2022-07-12T04:41:39;5.47;;;1.50;;
24559;SDS011;12727;49.934;8.656;2022-07-12T04:44:05;2.85;;;1.50;;
24559;SDS011;12727;49.934;8.656;2022-07-12T04:46:31;1.83;;;1.40;;
24559;SDS011;12727;49.934;8.656;2022-07-12T04:48:57;2.17;;;1.80;;
24559;SDS011;12727;49.934;8.656;2022-07-12T04:51:23;3.17;;;2.00;;
24559;SDS011;12727;49.934;8.656;2022-07-12T04:53:49;2.00;;;1.65;;
24559;SDS011;12727;49.934;8.656;2022-07-12T04:56:14;1.85;;;1.65;;
24559;SDS011;12727;49.934;8.656;2022-07-12T04:58:40;2.80;;;1.80;;
24559;SDS011;12727;49.934;8.656;2022-07-12T05:01:05;1.95;;;1.60;;
24559;SDS011;12727;49.934;8.656;2022-07-12T05:03:32;1.73;;;1.60;;
24559;SDS011;12727;49.934;8.656;2022-07-12T05:05:58;2.55;;;1.63;;
24559;SDS011;12727;49.934;8.656;2022-07-12T05:08:23;2.72;;;1.70;;
24559;SDS011;12727;49.934;8.656;2022-07-12T05:10:49;2.17;;;1.70;;
24559;SDS011;12727;49.934;8.656;2022-07-12T05:13:14;2.35;;;1.60;;
24559;SDS011;12727;49.934;8.656;2022-07-12T05:15:40;4.53;;;1.80;;
24559;SDS011;12727;49.934;8.656;2022-07-12T05:18:06;2.08;;;1.88;;
24559;SDS011;12727;49.934;8.656;2022-07-12T05:20:31;1.98;;;1.45;;
24559;SDS011;12727;49.934;8.656;2022-07-12T05:22:57;2.25;;;1.77;;
24559;SDS011;12727;49.934;8.656;2022-07-12T05:25:23;2.20;;;2.00;;
24559;SDS011;12727;49.934;8.656;2022-07-12T05:27:49;1.92;;;1.67;;
24559;SDS011;12727;49.934;8.656;2022-07-12T05:30:14;5.18;;;1.90;;
24559;SDS011;12727;49.934;8.656;2022-07-12T05:32:40;4.72;;;2.40;;
24559;SDS011;12727;49.934;8.656;2022-07-12T05:35:06;2.47;;;2.28;;
24559;SDS011;12727;49.934;8.656;2022-07-12T05:37:32;5.43;;;2.75;;
24559;SDS011;12727;49.934;8.656;2022-07-12T05:39:57;4.18;;;2.35;;
24559;SDS011;12727;49.934;8.656;2022-07-12T05:42:23;3.15;;;2.35;;
24559;SDS011;12727;49.934;8.656;2022-07-12T05:44:48;3.88;;;2.88;;
24559;SDS011;12727;49.934;8.656;2022-07-12T05:47:14;3.65;;;2.60;;
24559;SDS011;12727;49.934;8.656;2022-07-12T05:49:39;2.85;;;2.42;;
24559;SDS011;12727;49.934;8.656;2022-07-12T05:52:05;3.17;;;2.53;;
24559;SDS011;12727;49.934;8.656;2022-07-12T05:54:49;2.65;;;2.45;;
24559;SDS011;12727;49.934;8.656;2022-07-12T05:57:15;4.63;;;3.10;;
24559;SDS011;12727;49.934;8.656;2022-07-12T05:59:41;3.55;;;3.22;;
24559;SDS011;12727;49.934;8.656;2022-07-12T06:02:06;3.88;;;2.63;;
24559;SDS011;12727;49.934;8.656;2022-07-12T06:04:32;3.22;;;2.70;;
24559;SDS011;12727;49.934;8.656;2022-07-12T06:06:58;6.07;;;2.55;;
24559;SDS011;12727;49.934;8.656;2022-07-12T06:09:23;3.67;;;2.55;;
24559;SDS011;12727;49.934;8.656;2022-07-12T06:11:49;2.53;;;2.15;;
24559;SDS011;12727;49.934;8.656;2022-07-12T06:14:14;3.78;;;2.53;;
24559;SDS011;12727;49.934;8.656;2022-07-12T06:16:40;6.70;;;2.38;;
24559;SDS011;12727;49.934;8.656;2022-07-12T06:19:05;3.40;;;2.20;;
24559;SDS011;12727;49.934;8.656;2022-07-12T06:21:31;5.22;;;2.47;;
24559;SDS011;12727;49.934;8.656;2022-07-12T06:23:58;3.25;;;2.38;;
24559;SDS011;12727;49.934;8.656;2022-07-12T06:26:23;3.08;;;2.00;;
24559;SDS011;12727;49.934;8.656;2022-07-12T06:28:49;3.67;;;2.13;;
24559;SDS011;12727;49.934;8.656;2022-07-12T06:31:14;2.47;;;1.65;;
24559;SDS011;12727;49.934;8.656;2022-07-12T06:33:40;2.00;;;1.58;;
24559;SDS011;12727;49.934;8.656;2022-07-12T06:36:06;2.15;;;1.90;;
24559;SDS011;12727;49.934;8.656;2022-07-12T06:38:31;2.72;;;1.80;;
24559;SDS011;12727;49.934;8.656;2022-07-12T06:40:57;2.33;;;1.70;;
24559;SDS011;12727;49.934;8.656;2022-07-12T06:43:22;2.20;;;1.85;;
24559;SDS011;12727;49.934;8.656;2022-07-12T06:45:48;2.88;;;1.50;;
24559;SDS011;12727;49.934;8.656;2022-07-12T06:48:13;1.85;;;1.40;;
24559;SDS011;12727;49.934;8.656;2022-07-12T06:50:39;2.72;;;1.30;;
24559;SDS011;12727;49.934;8.656;2022-07-12T06:53:05;3.17;;;1.17;;
24559;SDS011;12727;49.934;8.656;2022-07-12T06:55:30;2.13;;;1.17;;
24559;SDS011;12727;49.934;8.656;2022-07-12T06:57:56;1.83;;;1.30;;
24559;SDS011;12727;49.934;8.656;2022-07-12T07:00:22;2.45;;;1.30;;
24559;SDS011;12727;49.934;8.656;2022-07-12T07:02:48;1.27;;;1.15;;
24559;SDS011;12727;49.934;8.656;2022-07-12T07:05:14;3.53;;;1.55;;
24559;SDS011;12727;49.934;8.656;2022-07-12T07:07:40;1.42;;;1.23;;
24559;SDS011;12727;49.934;8.656;2022-07-12T07:10:06;0.85;;;0.80;;
24559;SDS011;12727;49.934;8.656;2022-07-12T07:12:32;1.05;;;0.95;;
24559;SDS011;12727;49.934;8.656;2022-07-12T07:14:58;2.45;;;1.30;;
24559;SDS011;12727;49.934;8.656;2022-07-12T07:17:23;2.50;;;1.30;;
24559;SDS011;12727;49.934;8.656;2022-07-12T07:19:49;2.97;;;1.20;;
24559;SDS011;12727;49.934;8.656;2022-07-12T07:22:15;1.63;;;1.20;;
24559;SDS011;12727;49.934;8.656;2022-07-12T07:24:40;2.45;;;1.10;;
24559;SDS011;12727;49.934;8.656;2022-07-12T07:27:06;2.03;;;1.30;;
24559;SDS011;12727;49.934;8.656;2022-07-12T07:29:32;1.73;;;1.10;;
24559;SDS011;12727;49.934;8.656;2022-07-12T07:32:17;2.50;;;1.10;;
24559;SDS011;12727;49.934;8.656;2022-07-12T07:34:43;1.55;;;1.00;;
24559;SDS011;12727;49.934;8.656;2022-07-12T07:37:08;2.50;;;0.80;;
24559;SDS011;12727;49.934;8.656;2022-07-12T07:39:34;1.50;;;0.80;;
24559;SDS011;12727;49.934;8.656;2022-07-12T07:42:00;1.30;;;0.82;;
24559;SDS011;12727;49.934;8.656;2022-07-12T07:44:26;1.02;;;0.80;;
24559;SDS011;12727;49.934;8.656;2022-07-12T07:46:51;1.50;;;0.88;;
24559;SDS011;12727;49.934;8.656;2022-07-12T07:49:17;2.88;;;0.98;;
24559;SDS011;12727;49.934;8.656;2022-07-12T07:51:42;1.63;;;0.80;;
24559;SDS011;12727;49.934;8.656;2022-07-12T07:54:08;1.00;;;0.90;;
24559;SDS011;12727;49.934;8.656;2022-07-12T07:56:33;1.70;;;0.95;;
24559;SDS011;12727;49.934;8.656;2022-07-12T07:58:59;1.00;;;0.70;;
24559;SDS011;12727;49.934;8.656;2022-07-12T08:01:24;1.48;;;0.80;;
24559;SDS011;12727;49.934;8.656;2022-07-12T08:04:07;0.70;;;0.70;;
24559;SDS011;12727;49.934;8.656;2022-07-12T08:06:36;1.73;;;0.80;;
24559;SDS011;12727;49.934;8.656;2022-07-12T08:09:02;0.60;;;0.50;;
24559;SDS011;12727;49.934;8.656;2022-07-12T08:11:28;0.70;;;0.60;;
24559;SDS011;12727;49.934;8.656;2022-07-12T08:13:53;1.20;;;0.80;;
24559;SDS011;12727;49.934;8.656;2022-07-12T08:16:19;1.67;;;0.65;;
24559;SDS011;12727;49.934;8.656;2022-07-12T08:18:44;0.95;;;0.60;;
24559;SDS011;12727;49.934;8.656;2022-07-12T08:21:10;1.13;;;0.60;;
24559;SDS011;12727;49.934;8.656;2022-07-12T08:23:35;0.95;;;0.50;;
24559;SDS011;12727;49.934;8.656;2022-07-12T08:26:01;0.70;;;0.50;;
24559;SDS011;12727;49.934;8.656;2022-07-12T08:28:26;0.68;;;0.60;;
24559;SDS011;12727;49.934;8.656;2022-07-12T08:30:52;0.75;;;0.60;;
24559;SDS011;12727;49.934;8.656;2022-07-12T08:33:18;0.68;;;0.50;;
24559;SDS011;12727;49.934;8.656;2022-07-12T08:35:44;1.95;;;0.63;;
24559;SDS011;12727;49.934;8.656;2022-07-12T08:38:11;2.22;;;0.60;;
24559;SDS011;12727;49.934;8.656;2022-07-12T08:40:37;3.10;;;0.88;;
24559;SDS011;12727;49.934;8.656;2022-07-12T08:43:03;1.23;;;0.90;;
24559;SDS011;12727;49.934;8.656;2022-07-12T08:45:28;1.20;;;0.80;;
24559;SDS011;12727;49.934;8.656;2022-07-12T08:47:54;1.60;;;0.60;;
24559;SDS011;12727;49.934;8.656;2022-07-12T08:50:20;1.65;;;0.80;;
24559;SDS011;12727;49.934;8.656;2022-07-12T08:52:51;1.20;;;0.68;;
24559;SDS011;12727;49.934;8.656;2022-07-12T08:57:51;0.80;;;0.60;;
24559;SDS011;12727;49.934;8.656;2022-07-12T09:00:18;1.95;;;0.60;;
24559;SDS011;12727;49.934;8.656;2022-07-12T09:02:52;0.95;;;0.50;;
24559;SDS011;12727;49.934;8.656;2022-07-12T09:05:23;1.20;;;0.52;;
24559;SDS011;12727;49.934;8.656;2022-07-12T09:07:50;1.55;;;0.70;;
24559;SDS011;12727;49.934;8.656;2022-07-12T09:10:16;0.80;;;0.40;;
24559;SDS011;12727;49.934;8.656;2022-07-12T09:12:43;0.70;;;0.43;;
24559;SDS011;12727;49.934;8.656;2022-07-12T09:15:13;1.33;;;0.50;;
24559;SDS011;12727;49.934;8.656;2022-07-12T09:17:39;0.60;;;0.40;;
24559;SDS011;12727;49.934;8.656;2022-07-12T09:20:08;0.75;;;0.40;;
24559;SDS011;12727;49.934;8.656;2022-07-12T09:22:34;0.60;;;0.50;;
24559;SDS011;12727;49.934;8.656;2022-07-12T09:25:16;0.40;;;0.40;;
24559;SDS011;12727;49.934;8.656;2022-07-12T09:27:50;1.70;;;0.40;;
24559;SDS011;12727;49.934;8.656;2022-07-12T09:30:20;0.82;;;0.50;;
24559;SDS011;12727;49.934;8.656;2022-07-12T09:32:58;1.05;;;0.40;;
24559;SDS011;12727;49.934;8.656;2022-07-12T09:41:04;0.40;;;0.30;;
24559;SDS011;12727;49.934;8.656;2022-07-12T09:43:31;1.50;;;0.40;;
24559;SDS011;12727;49.934;8.656;2022-07-12T09:45:57;0.88;;;0.40;;
24559;SDS011;12727;49.934;8.656;2022-07-12T09:48:23;0.63;;;0.30;;
24559;SDS011;12727;49.934;8.656;2022-07-12T09:50:52;0.50;;;0.40;;
24559;SDS011;12727;49.934;8.656;2022-07-12T09:53:22;2.63;;;0.55;;
24559;SDS011;12727;49.934;8.656;2022-07-12T09:55:54;1.73;;;0.40;;
24559;SDS011;12727;49.934;8.656;2022-07-12T09:58:22;0.28;;;0.22;;
24559;SDS011;12727;49.934;8.656;2022-07-12T10:00:52;0.85;;;0.30;;
24559;SDS011;12727;49.934;8.656;2022-07-12T10:03:20;0.45;;;0.30;;
24559;SDS011;12727;49.934;8.656;2022-07-12T10:05:50;1.65;;;0.40;;
24559;SDS011;12727;49.934;8.656;2022-07-12T10:08:18;0.77;;;0.30;;
24559;SDS011;12727;49.934;8.656;2022-07-12T10:10:45;2.55;;;0.50;;
24559;SDS011;12727;49.934;8.656;2022-07-12T10:13:12;3.70;;;0.40;;
24559;SDS011;12727;49.934;8.656;2022-07-12T10:15:38;3.20;;;0.77;;
24559;SDS011;12727;49.934;8.656;2022-07-12T10:18:05;0.50;;;0.40;;
24559;SDS011;12727;49.934;8.656;2022-07-12T10:20:30;0.60;;;0.40;;
24559;SDS011;12727;49.934;8.656;2022-07-12T10:25:41;0.95;;;0.40;;
24559;SDS011;12727;49.934;8.656;2022-07-12T10:28:06;0.63;;;0.47;;
24559;SDS011;12727;49.934;8.656;2022-07-12T10:30:40;2.10;;;0.40;;
24559;SDS011;12727;49.934;8.656;2022-07-12T10:33:14;0.38;;;0.30;;
24559;SDS011;12727;49.934;8.656;2022-07-12T10:35:58;0.47;;;0.30;;
24559;SDS011;12727;49.934;8.656;2022-07-12T10:38:31;0.95;;;0.40;;
24559;SDS011;12727;49.934;8.656;2022-07-12T10:41:15;1.02;;;0.40;;
24559;SDS011;12727;49.934;8.656;2022-07-12T10:43:44;0.55;;;0.38;;
24559;SDS011;12727;49.934;8.656;2022-07-12T10:46:28;0.70;;;0.50;;
24559;SDS011;12727;49.934;8.656;2022-07-12T10:54:35;1.33;;;0.32;;
24559;SDS011;12727;49.934;8.656;2022-07-12T10:57:04;1.00;;;0.30;;
24559;SDS011;12727;49.934;8.656;2022-07-12T10:59:33;0.75;;;0.40;;
24559;SDS011;12727;49.934;8.656;2022-07-12T11:02:00;0.57;;;0.40;;
24559;SDS011;12727;49.934;8.656;2022-07-12T11:04:26;1.13;;;0.35;;
24559;SDS011;12727;49.934;8.656;2022-07-12T11:06:52;0.75;;;0.40;;
24559;SDS011;12727;49.934;8.656;2022-07-12T11:09:22;0.93;;;0.30;;
24559;SDS011;12727;49.934;8.656;2022-07-12T11:11:49;0.40;;;0.40;;
24559;SDS011;12727;49.934;8.656;2022-07-12T11:14:26;1.05;;;0.45;;
24559;SDS011;12727;49.934;8.656;2022-07-12T11:16:57;1.48;;;0.40;;
24559;SDS011;12727;49.934;8.656;2022-07-12T11:19:24;2.38;;;0.40;;
24559;SDS011;12727;49.934;8.656;2022-07-12T11:21:51;7.60;;;0.50;;
24559;SDS011;12727;49.934;8.656;2022-07-12T11:24:21;1.70;;;0.40;;
24559;SDS011;12727;49.934;8.656;2022-07-12T11:26:48;2.95;;;0.50;;
24559;SDS011;12727;49.934;8.656;2022-07-12T11:29:14;0.50;;;0.40;;
24559;SDS011;12727;49.934;8.656;2022-07-12T11:31:40;1.00;;;0.50;;
24559;SDS011;12727;49.934;8.656;2022-07-12T11:34:06;0.57;;;0.47;;
24559;SDS011;12727;49.934;8.656;2022-07-12T11:36:32;1.30;;;0.50;;
24559;SDS011;12727;49.934;8.656;2022-07-12T11:38:58;1.60;;;0.35;;
24559;SDS011;12727;49.934;8.656;2022-07-12T11:41:25;0.55;;;0.45;;
24559;SDS011;12727;49.934;8.656;2022-07-12T11:43:50;0.77;;;0.35;;
24559;SDS011;12727;49.934;8.656;2022-07-12T11:46:16;2.38;;;0.40;;
24559;SDS011;12727;49.934;8.656;2022-07-12T11:48:42;0.73;;;0.30;;
24559;SDS011;12727;49.934;8.656;2022-07-12T11:51:09;0.65;;;0.60;;
24559;SDS011;12727;49.934;8.656;2022-07-12T11:53:37;1.20;;;0.40;;
24559;SDS011;12727;49.934;8.656;2022-07-12T11:56:04;1.25;;;0.40;;
24559;SDS011;12727;49.934;8.656;2022-07-12T11:58:31;0.70;;;0.40;;
24559;SDS011;12727;49.934;8.656;2022-07-12T12:00:57;0.60;;;0.50;;
24559;SDS011;12727;49.934;8.656;2022-07-12T12:03:23;2.03;;;0.40;;
24559;SDS011;12727;49.934;8.656;2022-07-12T12:05:50;1.25;;;0.35;;
24559;SDS011;12727;49.934;8.656;2022-07-12T12:08:20;1.25;;;0.38;;
24559;SDS011;12727;49.934;8.656;2022-07-12T12:10:54;1.98;;;0.38;;
24559;SDS011;12727;49.934;8.656;2022-07-12T12:13:21;0.85;;;0.40;;
24559;SDS011;12727;49.934;8.656;2022-07-12T12:15:53;0.95;;;0.50;;
24559;SDS011;12727;49.934;8.656;2022-07-12T12:18:33;0.50;;;0.40;;
24559;SDS011;12727;49.934;8.656;2022-07-12T12:21:02;1.73;;;0.40;;
24559;SDS011;12727;49.934;8.656;2022-07-12T12:23:29;0.93;;;0.30;;
24559;SDS011;12727;49.934;8.656;2022-07-12T12:26:10;1.52;;;0.50;;
24559;SDS011;12727;49.934;8.656;2022-07-12T12:28:52;1.95;;;0.40;;
24559;SDS011;12727;49.934;8.656;2022-07-12T12:31:22;0.68;;;0.30;;
24559;SDS011;12727;49.934;8.656;2022-07-12T12:33:52;0.65;;;0.40;;
24559;SDS011;12727;49.934;8.656;2022-07-12T12:36:22;5.53;;;0.73;;
24559;SDS011;12727;49.934;8.656;2022-07-12T12:38:59;1.25;;;0.47;;
24559;SDS011;12727;49.934;8.656;2022-07-12T12:41:29;0.88;;;0.40;;
24559;SDS011;12727;49.934;8.656;2022-07-12T12:44:03;0.30;;;0.30;;
24559;SDS011;12727;49.934;8.656;2022-07-12T12:49:42;0.90;;;0.35;;
24559;SDS011;12727;49.934;8.656;2022-07-12T12:52:08;1.50;;;0.30;;
24559;SDS011;12727;49.934;8.656;2022-07-12T12:54:35;0.75;;;0.40;;
24559;SDS011;12727;49.934;8.656;2022-07-12T12:57:03;0.32;;;0.30;;
24559;SDS011;12727;49.934;8.656;2022-07-12T12:59:29;0.70;;;0.30;;
24559;SDS011;12727;49.934;8.656;2022-07-12T13:01:55;1.38;;;0.40;;
24559;SDS011;12727;49.934;8.656;2022-07-12T13:04:20;1.55;;;0.40;;
24559;SDS011;12727;49.934;8.656;2022-07-12T13:06:46;0.30;;;0.30;;
24559;SDS011;12727;49.934;8.656;2022-07-12T13:09:11;0.85;;;0.40;;
24559;SDS011;12727;49.934;8.656;2022-07-12T13:11:37;3.65;;;0.40;;
24559;SDS011;12727;49.934;8.656;2022-07-12T13:14:03;2.05;;;0.40;;
24559;SDS011;12727;49.934;8.656;2022-07-12T13:16:28;1.80;;;0.30;;
24559;SDS011;12727;49.934;8.656;2022-07-12T13:18:54;0.82;;;0.40;;
24559;SDS011;12727;49.934;8.656;2022-07-12T13:21:19;0.98;;;0.40;;
24559;SDS011;12727;49.934;8.656;2022-07-12T13:23:45;2.42;;;0.40;;
24559;SDS011;12727;49.934;8.656;2022-07-12T13:26:10;1.02;;;0.40;;
24559;SDS011;12727;49.934;8.656;2022-07-12T13:28:36;0.73;;;0.50;;
24559;SDS011;12727;49.934;8.656;2022-07-12T13:31:02;1.63;;;0.40;;
24559;SDS011;12727;49.934;8.656;2022-07-12T13:33:27;1.23;;;0.40;;
24559;SDS011;12727;49.934;8.656;2022-07-12T13:35:53;0.68;;;0.43;;
24559;SDS011;12727;49.934;8.656;2022-07-12T13:38:19;2.47;;;0.43;;
24559;SDS011;12727;49.934;8.656;2022-07-12T13:40:44;0.95;;;0.45;;
24559;SDS011;12727;49.934;8.656;2022-07-12T13:43:10;1.13;;;0.40;;
24559;SDS011;12727;49.934;8.656;2022-07-12T13:45:36;0.60;;;0.40;;
24559;SDS011;12727;49.934;8.656;2022-07-12T13:48:02;2.00;;;0.32;;
24559;SDS011;12727;49.934;8.656;2022-07-12T13:50:28;1.30;;;0.30;;
24559;SDS011;12727;49.934;8.656;2022-07-12T13:52:54;0.73;;;0.38;;
24559;SDS011;12727;49.934;8.656;2022-07-12T13:55:19;1.73;;;0.30;;
24559;SDS011;12727;49.934;8.656;2022-07-12T13:57:45;0.63;;;0.38;;
24559;SDS011;12727;49.934;8.656;2022-07-12T14:03:09;0.82;;;0.30;;
24559;SDS011;12727;49.934;8.656;2022-07-12T14:05:35;0.35;;;0.20;;
24559;SDS011;12727;49.934;8.656;2022-07-12T14:11:07;0.52;;;0.30;;
24559;SDS011;12727;49.934;8.656;2022-07-12T14:13:44;0.40;;;0.30;;
24559;SDS011;12727;49.934;8.656;2022-07-12T14:16:10;0.40;;;0.30;;
24559;SDS011;12727;49.934;8.656;2022-07-12T14:18:35;0.40;;;0.30;;
24559;SDS011;12727;49.934;8.656;2022-07-12T14:21:01;0.40;;;0.30;;
24559;SDS011;12727;49.934;8.656;2022-07-12T14:23:27;1.80;;;0.40;;
24559;SDS011;12727;49.934;8.656;2022-07-12T14:25:53;2.35;;;0.28;;
24559;SDS011;12727;49.934;8.656;2022-07-12T14:28:18;1.65;;;0.32;;
24559;SDS011;12727;49.934;8.656;2022-07-12T14:30:44;0.50;;;0.30;;
24559;SDS011;12727;49.934;8.656;2022-07-12T14:33:09;3.25;;;0.35;;
24559;SDS011;12727;49.934;8.656;2022-07-12T14:35:35;2.08;;;0.30;;
24559;SDS011;12727;49.934;8.656;2022-07-12T14:38:00;0.68;;;0.60;;
24559;SDS011;12727;49.934;8.656;2022-07-12T14:40:26;0.57;;;0.30;;
24559;SDS011;12727;49.934;8.656;2022-07-12T14:42:51;0.77;;;0.30;;
24559;SDS011;12727;49.934;8.656;2022-07-12T14:45:17;0.20;;;0.20;;
24559;SDS011;12727;49.934;8.656;2022-07-12T14:47:43;0.35;;;0.20;;
24559;SDS011;12727;49.934;8.656;2022-07-12T14:50:08;0.55;;;0.38;;
24559;SDS011;12727;49.934;8.656;2022-07-12T14:52:34;0.73;;;0.30;;
24559;SDS011;12727;49.934;8.656;2022-07-12T14:55:00;1.75;;;0.30;;
24559;SDS011;12727;49.934;8.656;2022-07-12T14:57:25;1.05;;;0.40;;
24559;SDS011;12727;49.934;8.656;2022-07-12T14:59:51;1.27;;;0.30;;
24559;SDS011;12727;49.934;8.656;2022-07-12T15:02:19;1.98;;;0.20;;
24559;SDS011;12727;49.934;8.656;2022-07-12T15:04:44;0.50;;;0.30;;
24559;SDS011;12727;49.934;8.656;2022-07-12T15:07:10;0.95;;;0.30;;
24559;SDS011;12727;49.934;8.656;2022-07-12T15:09:35;1.00;;;0.30;;
24559;SDS011;12727;49.934;8.656;2022-07-12T15:12:01;1.90;;;0.30;;